Latest Weather Observations for Cape Naturaliste

IDW60801

Issued at 7:32 am WST Saturday 23 May 2015 (issued every 30 minutes, with the page automatically refreshed every 10 minutes)

About weather observations | Map of weather stations | Latest weather observations for WA | Other Formats
Station Details ID: 009519 Name: CAPE NATURALISTE Lat: -33.54 Lon: 115.02 Height: 109.0 m
Data from the previous 72 hours. | See also: Recent months at Cape Naturaliste
Date/Time
WST
Temp
°C
App
Temp
°C
Dew
Point
Rel
Hum
%
Delta-T
°C
Wind Press
QNH
hPa
Press
MSL
hPa
Rain
since 9 am
mm
Dir
 
Spd
km/h
Gust
km/h
Spd
kts
Gust
kts
23/07:30am 17.3 13.5 12.4 73 2.7 W 24 35 13 19 1017.3 1017.2 0.0
23/07:00am 16.6 12.7 10.9 69 3.1 WNW 22 28 12 15 1017.1 1017.0 0.0
23/06:30am 16.6 12.2 10.5 67 3.3 WNW 24 30 13 16 1016.9 1016.8 0.0
23/06:00am 16.5 12.3 11.0 70 3.0 WNW 24 30 13 16 1016.7 1016.6 0.0
23/05:30am 16.6 12.5 11.3 71 2.9 WNW 24 30 13 16 1016.6 1016.5 0.0
23/05:00am 16.5 12.7 11.0 70 3.0 WNW 22 28 12 15 1016.4 1016.3 0.0
23/04:30am 16.9 13.3 12.0 73 2.7 WNW 22 30 12 16 1016.4 1016.3 0.0
23/04:00am 16.2 13.1 11.6 74 2.5 WNW 19 28 10 15 1016.5 1016.4 0.0
23/03:30am 15.0 13.0 11.6 80 1.8 NW 13 17 7 9 1016.6 1016.5 0.0
23/03:00am 14.5 13.6 11.5 82 1.6 NNW 7 11 4 6 1016.7 1016.6 0.0
23/02:30am 13.3 12.0 10.1 81 1.7 ESE 7 11 4 6 1016.8 1016.7 0.0
23/02:00am 13.8 12.7 10.6 81 1.7 E 7 9 4 5 1016.8 1016.7 0.0
23/01:30am 13.6 12.4 10.4 81 1.7 ESE 7 9 4 5 1017.0 1016.9 0.0
23/01:00am 13.9 12.4 10.5 80 1.8 E 9 11 5 6 1017.1 1017.0 0.0
23/12:30am 13.4 11.6 9.6 78 2.0 ESE 9 11 5 6 1017.2 1017.1 0.0
23/12:00am 14.1 11.9 9.5 74 2.4 ENE 11 15 6 8 1017.4 1017.3 0.0
 
Date/Time
WST
Temp
°C
App
Temp
°C
Dew
Point
Rel
Hum
%
Delta-T
°C
Wind Press
QNH
hPa
Press
MSL
hPa
Rain
since 9 am
mm
Dir
 
Spd
km/h
Gust
km/h
Spd
kts
Gust
kts
22/11:30pm 14.8 11.9 9.8 72 2.6 NNE 15 17 8 9 1017.5 1017.4 0.0
22/11:00pm 14.8 12.0 10.0 73 2.5 N 15 17 8 9 1017.6 1017.5 0.0
22/10:30pm 14.2 12.1 9.6 74 2.4 N 11 15 6 8 1017.9 1017.8 0.0
22/10:00pm 14.1 12.0 9.7 75 2.3 NNW 11 13 6 7 1018.0 1017.9 0.0
22/09:30pm 13.5 11.3 9.4 76 2.1 NW 11 13 6 7 1018.1 1018.0 0.0
22/09:00pm 13.2 11.3 8.9 75 2.2 NNW 9 13 5 7 1018.2 1018.1 0.0
22/08:30pm 13.6 12.0 8.9 73 2.4 NNW 7 7 4 4 1018.2 1018.1 0.0
22/08:00pm 14.0 12.5 9.0 72 2.5 NNW 7 9 4 5 1018.4 1018.3 0.0
22/07:30pm 13.7 12.0 8.5 71 2.6 NNW 7 9 4 5 1018.4 1018.3 0.0
22/07:00pm 13.5 11.7 8.1 70 2.7 N 7 11 4 6 1018.0 1017.9 0.0
22/06:30pm 13.4 11.2 8.0 70 2.7 NNE 9 13 5 7 1017.7 1017.6 0.0
22/06:00pm 14.2 12.6 8.6 69 2.8 N 7 9 4 5 1017.5 1017.4 0.0
22/05:30pm 14.4 12.3 8.4 67 3.0 N 9 11 5 6 1017.6 1017.5 0.0
22/05:00pm 16.1 15.3 9.5 65 3.4 NNE 4 7 2 4 1017.8 1017.7 0.0
22/04:30pm 16.4 14.8 8.9 61 3.9 NNE 7 9 4 5 1017.8 1017.7 0.0
22/04:00pm 17.4 15.1 9.1 58 4.3 NE 11 15 6 8 1017.8 1017.7 0.0
22/03:30pm 17.7 15.0 9.1 57 4.5 NNE 13 15 7 8 1018.0 1017.9 0.0
22/03:00pm 18.0 15.0 9.1 56 4.7 NNE 15 19 8 10 1017.8 1017.7 0.0
22/02:30pm 18.4 15.1 9.5 56 4.7 NE 17 20 9 11 1017.8 1017.7 0.0
22/02:00pm 18.0 14.6 9.1 56 4.7 NE 17 20 9 11 1017.9 1017.8 0.0
22/01:30pm 18.2 14.8 9.3 56 4.7 NE 17 22 9 12 1018.0 1017.9 0.0
22/01:00pm 18.2 14.9 9.5 57 4.6 NE 17 20 9 11 1018.1 1018.0 0.0
22/12:30pm 18.5 15.1 9.3 55 4.9 NE 17 20 9 11 1018.6 1018.5 0.0
22/12:00pm 18.4 14.7 9.5 56 4.7 NE 19 22 10 12 1019.2 1019.0 0.0
22/11:30am 18.4 14.7 10.0 58 4.5 NE 20 24 11 13 1019.6 1019.4 0.0
22/11:00am 17.6 13.4 9.8 60 4.1 NE 22 28 12 15 1020.0 1019.8 0.0
22/10:30am 17.8 13.6 9.9 60 4.2 NE 22 28 12 15 1020.4 1020.2 0.0
22/10:00am 17.2 12.6 9.6 61 4.0 NE 24 30 13 16 1020.4 1020.2 0.0
22/09:30am 16.1 13.0 10.2 68 3.1 E 17 24 9 13 1020.5 1020.3 0.0
22/09:00am 14.4 11.1 9.6 73 2.5 E 17 26 9 14 1020.7 1020.5 0.0
22/08:30am 12.4 8.5 8.7 78 1.9 ESE 19 22 10 12 1021.0 1020.8 0.0
22/08:00am 10.6 6.2 7.5 81 1.5 ESE 20 24 11 13 1020.9 1020.7 0.0
22/07:30am 9.4 4.4 6.5 82 1.4 ESE 22 24 12 13 1020.7 1020.5 0.0
22/07:00am 9.1 4.0 6.0 81 1.4 ESE 22 26 12 14 1020.7 1020.5 0.0
22/06:30am 9.1 4.0 5.8 80 1.5 ESE 22 26 12 14 1020.6 1020.4 0.0
22/06:00am 9.0 3.8 5.6 79 1.5 ESE 22 26 12 14 1020.8 1020.6 0.0
22/05:30am 9.0 3.8 5.4 78 1.6 ESE 22 26 12 14 1020.7 1020.5 0.0
22/05:00am 9.1 3.5 5.3 77 1.7 ESE 24 26 13 14 1020.8 1020.6 0.0
22/04:30am 8.8 3.1 4.8 76 1.8 ESE 24 26 13 14 1020.8 1020.6 0.0
22/04:00am 8.9 3.2 4.7 75 1.9 ESE 24 28 13 15 1021.1 1020.9 0.0
22/03:30am 9.1 3.4 4.9 75 1.9 ESE 24 26 13 14 1021.2 1021.0 0.0
22/03:00am 9.1 3.4 5.1 76 1.8 ESE 24 28 13 15 1021.6 1021.4 0.0
22/02:30am 9.3 3.7 5.3 76 1.8 ESE 24 28 13 15 1021.8 1021.6 0.0
22/02:00am 9.6 4.4 5.4 75 1.9 ESE 22 26 12 14 1022.2 1022.0 0.0
22/01:30am 10.5 5.5 6.3 75 2.0 ESE 22 26 12 14 1022.5 1022.4 0.0
22/01:00am 11.5 6.6 6.8 73 2.2 ESE 22 28 12 15 1022.7 1022.6 0.0
22/12:30am 13.1 8.1 8.0 71 2.5 E 24 32 13 17 1022.8 1022.7 0.0
22/12:00am 13.3 8.3 8.0 70 2.6 E 24 32 13 17 1023.0 1022.9 0.0
 
Date/Time
WST
Temp
°C
App
Temp
°C
Dew
Point
Rel
Hum
%
Delta-T
°C
Wind Press
QNH
hPa
Press
MSL
hPa
Rain
since 9 am
mm
Dir
 
Spd
km/h
Gust
km/h
Spd
kts
Gust
kts
21/11:30pm 14.1 8.7 8.1 67 3.0 ENE 26 33 14 18 1023.1 1023.0 0.0
21/11:00pm 14.3 8.4 7.6 64 3.3 ENE 28 39 15 21 1023.0 1022.9 0.0
21/10:30pm 14.5 8.2 7.5 63 3.5 ENE 30 39 16 21 1023.3 1023.2 0.0
21/10:00pm 14.4 8.5 7.5 63 3.4 ENE 28 37 15 20 1023.4 1023.3 0.0
21/09:30pm 12.4 7.9 7.1 70 2.6 E 20 32 11 17 1023.5 1023.4 0.0
21/09:00pm 12.0 7.4 6.5 69 2.6 ESE 20 26 11 14 1023.5 1023.4 0.0
21/08:30pm 12.3 7.7 6.6 68 2.7 ESE 20 26 11 14 1023.4 1023.3 0.0
21/08:00pm 12.0 7.5 6.1 67 2.8 ESE 19 26 10 14 1023.5 1023.4 0.0
21/07:30pm 12.5 8.1 6.5 67 2.9 ESE 19 24 10 13 1023.6 1023.5 0.0
21/07:00pm 12.3 8.1 5.9 65 3.0 SE 17 20 9 11 1023.7 1023.6 0.0
21/06:30pm 12.7 9.2 5.6 62 3.3 ESE 13 19 7 10 1023.8 1023.7 0.0
21/06:00pm 14.3 9.8 6.2 58 3.9 E 19 24 10 13 1023.6 1023.5 0.0
21/05:30pm 13.8 10.0 5.9 59 3.8 E 15 20 8 11 1023.7 1023.6 0.0
21/05:00pm 14.8 11.1 6.1 56 4.2 ENE 15 20 8 11 1023.6 1023.5 0.0
21/04:30pm 15.8 11.6 5.7 51 4.9 ENE 17 20 9 11 1023.7 1023.6 0.0
21/04:00pm 16.5 12.4 6.3 51 5.0 ENE 17 20 9 11 1024.0 1023.9 0.0
21/03:30pm 16.9 12.9 6.7 51 5.1 ENE 17 22 9 12 1024.3 1024.2 0.0
21/03:00pm 17.2 12.8 6.7 50 5.2 ENE 19 26 10 14 1024.4 1024.3 0.0
21/02:30pm 17.2 12.6 6.4 49 5.3 ENE 20 30 11 16 1024.5 1024.4 0.0
21/02:00pm 17.3 12.4 6.8 50 5.2 ENE 22 30 12 16 1024.7 1024.6 0.0
21/01:30pm 17.3 12.2 7.6 53 4.9 ENE 24 30 13 16 1024.9 1024.8 0.0
21/01:00pm 16.9 11.7 7.3 53 4.8 ENE 24 30 13 16 1025.1 1025.0 0.0
21/12:30pm 17.1 12.0 7.5 53 4.8 ENE 24 32 13 17 1025.5 1025.4 0.0
21/12:00pm 16.9 11.5 7.8 55 4.6 ENE 26 35 14 19 1025.9 1025.8 0.0
21/11:30am 17.2 12.4 8.9 58 4.3 ENE 24 35 13 19 1026.5 1026.4 0.0
21/11:00am 15.9 10.0 7.7 58 4.1 ENE 28 39 15 21 1027.1 1027.0 0.0
21/10:30am 15.5 9.7 7.8 60 3.9 ENE 28 37 15 20 1027.5 1027.4 0.0
21/10:00am 14.9 8.7 7.7 62 3.6 ENE 30 39 16 21 1027.7 1027.6 0.0
21/09:30am 14.3 8.0 7.4 63 3.4 ENE 30 41 16 22 1027.8 1027.7 0.0
21/09:00am 13.9 9.5 8.9 72 2.5 E 22 33 12 18 1028.1 1028.0 0.0
21/08:30am 12.3 8.5 9.0 80 1.7 ESE 19 24 10 13 1028.6 1028.4 0.0
21/08:00am 11.2 7.2 8.4 83 1.4 ESE 19 24 10 13 1028.6 1028.4 0.0
21/07:30am 9.9 6.1 7.5 85 1.2 ESE 17 22 9 12 1028.6 1028.4 0.0
21/07:00am 9.5 5.2 6.9 84 1.2 ESE 19 28 10 15 1028.4 1028.3 0.0
21/06:30am 9.2 5.2 6.5 83 1.3 ESE 17 24 9 13 1028.1 1028.0 0.0
21/06:00am 9.1 4.6 6.2 82 1.3 ESE 19 24 10 13 1028.1 1028.0 0.0
21/05:30am 9.3 5.1 5.7 78 1.6 ESE 17 22 9 12 1028.0 1027.9 0.0
21/05:00am 11.5 6.7 7.2 75 2.1 E 22 32 12 17 1027.9 1027.8 0.0
21/04:30am 11.8 6.3 7.5 75 2.1 ENE 26 39 14 21 1027.7 1027.6 0.0
21/04:00am 11.9 6.4 7.4 74 2.2 E 26 35 14 19 1027.8 1027.7 0.0
21/03:30am 12.1 6.7 7.8 75 2.1 ENE 26 35 14 19 1027.9 1027.8 0.0
21/03:00am 12.2 7.2 8.1 76 2.0 ENE 24 33 13 18 1028.1 1028.0 0.0
21/02:30am 12.2 6.4 8.1 76 2.0 E 28 33 15 18 1028.4 1028.3 0.0
21/02:00am 12.4 6.7 8.3 76 2.0 E 28 39 15 21 1028.7 1028.5 0.0
21/01:30am 12.5 6.4 8.2 75 2.1 E 30 39 16 21 1028.8 1028.6 0.0
21/01:00am 12.6 6.9 8.3 75 2.1 E 28 39 15 21 1029.0 1028.8 0.0
21/12:30am 12.7 6.6 8.2 74 2.2 E 30 37 16 20 1029.3 1029.1 0.0
21/12:00am 12.7 7.0 8.2 74 2.2 E 28 35 15 19 1029.4 1029.2 0.0
 
Date/Time
WST
Temp
°C
App
Temp
°C
Dew
Point
Rel
Hum
%
Delta-T
°C
Wind Press
QNH
hPa
Press
MSL
hPa
Rain
since 9 am
mm
Dir
 
Spd
km/h
Gust
km/h
Spd
kts
Gust
kts
20/11:30pm 13.3 7.9 8.2 71 2.5 E 26 37 14 20 1029.5 1029.3 0.0
20/11:00pm 13.5 7.8 8.4 71 2.5 E 28 39 15 21 1029.5 1029.3 0.0
20/10:30pm 13.4 7.8 8.7 73 2.4 E 28 37 15 20 1029.5 1029.3 0.0
20/10:00pm 11.3 7.6 7.8 79 1.7 ESE 17 22 9 12 1029.7 1029.5 0.0
20/09:30pm 10.6 6.6 6.6 76 1.9 SE 17 20 9 11 1029.6 1029.4 0.0
20/09:00pm 11.3 7.0 6.8 74 2.1 SE 19 24 10 13 1029.6 1029.4 0.0
20/08:30pm 11.5 7.4 6.4 71 2.4 SE 17 22 9 12 1029.5 1029.3 0.0
20/08:00pm 12.4 8.5 6.9 69 2.6 ESE 17 24 9 13 1029.6 1029.4 0.0
20/07:30pm 13.5 8.7 7.5 67 3.0 E 22 32 12 17 1029.6 1029.4 0.0
20/07:00pm 13.3 8.1 7.1 66 3.0 ESE 24 32 13 17 1029.7 1029.5 0.0
20/06:30pm 13.6 9.2 7.4 66 3.0 ESE 20 32 11 17 1029.5 1029.3 0.0
20/06:00pm 13.5 9.0 7.1 65 3.1 ESE 20 30 11 16 1029.2 1029.0 0.0
20/05:30pm 13.8 9.5 6.9 63 3.4 ESE 19 24 10 13 1029.0 1028.8 0.0
20/05:00pm 14.0 9.5 6.8 62 3.5 E 20 28 11 15 1028.8 1028.6 0.0
20/04:30pm 14.2 9.7 6.8 61 3.6 E 20 28 11 15 1028.8 1028.6 0.0
20/04:00pm 14.2 9.3 7.0 62 3.5 E 22 28 12 15 1029.0 1028.8 0.0
20/03:30pm 14.1 8.7 6.2 59 3.8 ENE 24 32 13 17 1028.9 1028.7 0.0
20/03:00pm 14.5 10.1 7.5 63 3.4 E 20 30 11 16 1029.0 1028.8 0.0
20/02:30pm 14.3 9.8 6.9 61 3.6 E 20 28 11 15 1029.1 1028.9 0.0
20/02:00pm 15.3 10.9 7.3 59 3.9 E 20 30 11 16 1029.3 1029.1 0.0
20/01:30pm 16.3 10.4 7.3 55 4.5 ENE 28 39 15 21 1029.3 1029.1 0.0
20/01:00pm 15.6 10.1 7.6 59 4.0 ENE 26 33 14 18 1029.5 1029.3 0.0
20/12:30pm 15.2 9.3 7.7 61 3.8 ENE 28 35 15 19 1030.0 1029.8 0.0
20/12:00pm 15.1 9.3 8.1 63 3.5 E 28 35 15 19 1030.4 1030.3 0.0
20/11:30am 14.9 9.2 8.2 64 3.4 E 28 35 15 19 1031.0 1030.9 0.0
20/11:00am 14.7 8.5 8.0 64 3.3 E 30 39 16 21 1031.2 1031.1 0.0
20/10:30am 14.6 9.1 9.0 69 2.9 E 28 37 15 20 1031.3 1031.2 0.0
20/10:00am 13.9 8.3 8.7 71 2.6 E 28 39 15 21 1031.4 1031.3 0.0
20/09:30am 13.1 6.6 8.0 71 2.5 E 32 41 17 22 1031.3 1031.2 0.0
20/09:00am 12.9 7.9 9.7 81 1.6 E 26 35 14 19 1031.2 1031.1 0.0
20/08:30am 11.4 6.3 9.1 86 1.2 E 26 37 14 20 1031.1 1031.0 0.0
20/08:00am 8.9 4.4 6.9 87 0.9 ESE 20 28 11 15 1030.8 1030.7 0.0

Other Formats:

Comma delimited format used in spreadsheet applications
http://www.bom.gov.au/fwo/IDW60801/IDW60801.94600.axf

JavaScript Object Notation format (JSON) in row-major order
http://www.bom.gov.au/fwo/IDW60801/IDW60801.94600.json